Time;durP1;ratioP1;P1;durP2;ratioP2;P2;SDS_P1;SDS_P2;PMS_P1;PMS_P2;Temp;Humidity;BMP_temperature;BMP_pressure;BME280_temperature;BME280_humidity;BME280_pressure;Samples;Min_cycle;Max_cycle;Signal;HPM_P1;HPM_P2
2023/07/18 00:00:14;;;;;;;9.33;4.17;;;18.60;75.80;;;;;;5013610;28;20499;-70
2023/07/18 00:02:42;;;;;;;4.87;3.10;;;18.60;76.10;;;;;;5014909;28;20454;-70
2023/07/18 00:05:12;;;;;;;7.30;3.87;;;18.70;76.30;;;;;;5014536;28;20463;-70
2023/07/18 00:07:40;;;;;;;4.13;2.63;;;18.60;76.60;;;;;;5014749;28;20428;-70
2023/07/18 00:10:07;;;;;;;5.50;3.13;;;18.60;76.80;;;;;;5014251;28;21042;-70
2023/07/18 00:12:34;;;;;;;3.57;2.90;;;18.60;76.90;;;;;;5014588;28;20463;-70
2023/07/18 00:15:03;;;;;;;4.43;3.00;;;18.60;76.90;;;;;;5014682;28;20452;-71
2023/07/18 00:17:31;;;;;;;4.87;2.63;;;18.60;77.20;;;;;;5018777;28;20518;-70
2023/07/18 00:19:58;;;;;;;3.30;2.97;;;18.60;76.90;;;;;;5018736;28;20511;-70
2023/07/18 00:22:26;;;;;;;6.27;3.23;;;18.60;76.80;;;;;;5015370;28;20462;-70
2023/07/18 00:24:53;;;;;;;3.10;2.77;;;18.60;76.80;;;;;;5014526;28;20459;-71
2023/07/18 00:27:20;;;;;;;4.40;3.17;;;18.70;77.20;;;;;;5014491;28;20463;-70
2023/07/18 00:29:47;;;;;;;3.10;2.80;;;18.70;77.40;;;;;;5014511;28;20474;-70
2023/07/18 00:32:14;;;;;;;3.70;3.40;;;18.70;77.40;;;;;;5014415;28;20443;-70
2023/07/18 00:34:41;;;;;;;5.73;3.37;;;18.60;77.80;;;;;;5014244;28;20951;-71
2023/07/18 00:37:08;;;;;;;5.00;3.13;;;18.60;78.00;;;;;;5014240;28;21035;-71
2023/07/18 00:39:36;;;;;;;6.87;3.60;;;18.60;77.60;;;;;;5012936;28;20971;-70
2023/07/18 00:42:02;;;;;;;5.03;3.90;;;18.60;77.70;;;;;;5014224;28;20450;-70
2023/07/18 00:44:29;;;;;;;5.10;2.77;;;18.60;78.00;;;;;;5014122;28;20458;-70
2023/07/18 00:46:56;;;;;;;4.57;3.13;;;18.60;78.00;;;;;;5014022;28;20502;-70
2023/07/18 00:49:24;;;;;;;4.67;3.07;;;18.50;78.00;;;;;;5013660;28;20458;-70
2023/07/18 00:51:51;;;;;;;7.00;3.37;;;18.60;78.10;;;;;;5013919;28;20479;-70
2023/07/18 00:54:18;;;;;;;6.60;2.67;;;18.50;78.00;;;;;;5013968;28;20846;-70
2023/07/18 00:56:47;;;;;;;8.70;3.43;;;18.60;77.90;;;;;;5013797;28;20475;-70
2023/07/18 00:59:17;;;;;;;5.60;3.20;;;18.60;78.00;;;;;;5012841;28;20498;-70
2023/07/18 01:01:44;;;;;;;5.23;2.97;;;18.50;77.90;;;;;;5012201;28;20475;-69
2023/07/18 01:04:11;;;;;;;6.60;3.20;;;18.50;77.70;;;;;;5013876;28;20458;-70
2023/07/18 01:06:38;;;;;;;3.53;3.00;;;18.40;78.00;;;;;;5013720;28;20470;-70
2023/07/18 01:09:06;;;;;;;4.20;3.70;;;18.40;79.00;;;;;;5013521;28;20463;-71
2023/07/18 01:11:34;;;;;;;3.23;2.93;;;18.40;77.90;;;;;;5013814;28;20490;-70
2023/07/18 01:14:03;;;;;;;4.37;3.03;;;18.40;77.70;;;;;;5013835;28;20868;-70
2023/07/18 01:16:30;;;;;;;5.13;3.23;;;18.30;77.30;;;;;;5022573;28;20455;-70
2023/07/18 01:18:56;;;;;;;4.37;3.70;;;18.30;77.20;;;;;;5021373;28;20454;-70
2023/07/18 01:21:25;;;;;;;7.40;3.37;;;18.20;77.10;;;;;;5017346;28;20862;-70
2023/07/18 01:23:51;;;;;;;4.50;3.67;;;18.10;77.10;;;;;;5015512;28;20462;-70
2023/07/18 01:26:18;;;;;;;6.80;3.30;;;18.10;77.20;;;;;;5014123;28;20462;-71
2023/07/18 01:28:45;;;;;;;5.07;3.67;;;18.10;77.50;;;;;;5013768;28;20459;-70
2023/07/18 01:31:12;;;;;;;6.10;3.20;;;18.00;77.80;;;;;;5014165;28;20483;-70
2023/07/18 01:33:42;;;;;;;3.70;3.20;;;18.00;77.90;;;;;;5012406;28;20975;-70
2023/07/18 01:36:09;;;;;;;4.40;3.73;;;17.90;77.80;;;;;;5012497;28;20443;-70
2023/07/18 01:38:37;;;;;;;7.30;4.23;;;17.90;77.90;;;;;;5013855;28;20451;-70
2023/07/18 01:41:04;;;;;;;5.50;3.40;;;17.80;78.00;;;;;;5013709;28;20475;-71
2023/07/18 01:43:30;;;;;;;4.47;3.90;;;17.70;78.40;;;;;;5014404;28;20454;-70
2023/07/18 01:46:00;;;;;;;7.30;3.70;;;17.70;79.00;;;;;;5017391;28;20458;-70
2023/07/18 01:48:27;;;;;;;5.80;3.23;;;17.70;79.10;;;;;;5017205;28;20450;-70
2023/07/18 01:50:54;;;;;;;3.93;3.10;;;17.60;79.40;;;;;;5017317;28;20487;-70
2023/07/18 01:53:21;;;;;;;4.20;3.80;;;17.60;79.50;;;;;;5020283;28;20446;-70
2023/07/18 01:55:49;;;;;;;6.03;3.43;;;17.60;79.50;;;;;;5020209;28;20454;-70
2023/07/18 01:58:16;;;;;;;5.87;3.27;;;17.70;80.00;;;;;;5016882;28;20829;-70
2023/07/18 02:00:43;;;;;;;13.03;4.20;;;17.70;80.40;;;;;;5016785;28;20475;-70
2023/07/18 02:03:12;;;;;;;6.13;3.77;;;17.70;81.10;;;;;;5016954;28;20459;-70
2023/07/18 02:05:39;;;;;;;8.83;4.00;;;17.70;81.20;;;;;;5016612;28;20463;-70
2023/07/18 02:08:06;;;;;;;6.60;3.33;;;17.70;81.70;;;;;;5016764;28;20447;-70
2023/07/18 02:10:32;;;;;;;7.37;4.00;;;17.70;82.40;;;;;;5016683;28;20474;-70
2023/07/18 02:13:02;;;;;;;7.37;3.90;;;17.60;82.40;;;;;;5016631;28;20480;-70
2023/07/18 02:15:30;;;;;;;12.50;3.27;;;17.60;82.70;;;;;;5016509;28;20428;-70
2023/07/18 02:17:57;;;;;;;11.63;3.40;;;17.60;83.10;;;;;;5016552;28;20446;-70
2023/07/18 02:20:24;;;;;;;7.43;4.43;;;17.60;83.30;;;;;;5016615;28;20463;-70
2023/07/18 02:22:51;;;;;;;6.67;3.70;;;17.50;83.40;;;;;;5016446;28;20446;-70
2023/07/18 02:25:18;;;;;;;5.67;4.13;;;17.50;83.40;;;;;;5016355;28;20454;-70
2023/07/18 02:27:45;;;;;;;10.97;3.50;;;17.50;83.00;;;;;;5016347;28;20458;-70
2023/07/18 02:30:14;;;;;;;8.50;4.10;;;17.50;83.00;;;;;;5015889;28;20821;-70
2023/07/18 02:32:42;;;;;;;5.87;3.80;;;17.50;83.20;;;;;;5016521;28;20486;-71
2023/07/18 02:35:10;;;;;;;3.90;3.47;;;17.50;83.10;;;;;;5016673;28;20448;-71
2023/07/18 02:37:37;;;;;;;4.83;3.27;;;17.40;82.50;;;;;;5014655;28;20455;-71
2023/07/18 02:40:08;;;;;;;4.37;3.67;;;17.40;82.10;;;;;;5015956;28;20546;-70
2023/07/18 02:42:35;;;;;;;8.80;4.00;;;17.40;82.20;;;;;;5016308;28;20442;-70
2023/07/18 02:45:02;;;;;;;7.43;3.37;;;17.40;83.10;;;;;;5016280;28;20447;-70
2023/07/18 02:47:30;;;;;;;8.00;3.97;;;17.40;82.50;;;;;;5015706;28;21056;-70
2023/07/18 02:49:57;;;;;;;6.20;4.10;;;17.30;81.40;;;;;;5015994;28;20919;-70
2023/07/18 02:52:24;;;;;;;9.10;3.90;;;17.30;81.90;;;;;;5015603;28;20867;-70
2023/07/18 02:54:51;;;;;;;8.70;3.40;;;17.30;82.70;;;;;;5014872;28;20458;-70
2023/07/18 02:57:18;;;;;;;6.30;3.47;;;17.30;82.00;;;;;;5015675;28;20501;-70
2023/07/18 02:59:45;;;;;;;6.87;3.50;;;17.20;81.50;;;;;;5015709;28;20468;-71
2023/07/18 03:02:12;;;;;;;5.90;3.33;;;17.20;81.20;;;;;;5015937;28;20474;-70
2023/07/18 03:04:42;;;;;;;6.77;4.20;;;17.20;80.60;;;;;;5016147;28;20454;-70
2023/07/18 03:07:09;;;;;;;6.80;3.90;;;17.10;80.30;;;;;;5029724;28;20451;-70
2023/07/18 03:09:35;;;;;;;4.90;3.90;;;17.10;80.60;;;;;;5018944;28;20463;-70
2023/07/18 03:12:02;;;;;;;8.20;3.07;;;17.10;81.20;;;;;;5015859;28;20486;-71
2023/07/18 03:14:30;;;;;;;7.33;3.87;;;17.10;81.70;;;;;;5015784;28;20474;-70
2023/07/18 03:16:56;;;;;;;5.93;3.43;;;17.10;81.90;;;;;;5015520;28;20459;-70
2023/07/18 03:19:23;;;;;;;5.53;3.20;;;17.10;81.70;;;;;;5015380;28;20471;-70
2023/07/18 03:21:52;;;;;;;8.10;3.87;;;17.10;81.10;;;;;;5015422;28;20487;-70
2023/07/18 03:24:18;;;;;;;8.30;4.60;;;17.10;80.50;;;;;;5015451;28;20451;-70
2023/07/18 03:26:45;;;;;;;15.97;4.97;;;17.00;80.50;;;;;;5015395;28;20451;-70
2023/07/18 03:29:12;;;;;;;10.93;4.00;;;16.90;80.80;;;;;;5015730;28;20451;-70
2023/07/18 03:31:40;;;;;;;5.80;3.90;;;16.90;81.00;;;;;;5015672;28;20498;-70
2023/07/18 03:34:07;;;;;;;6.93;3.80;;;16.90;80.50;;;;;;5020669;28;20440;-70
2023/07/18 03:36:35;;;;;;;6.77;4.00;;;16.90;80.00;;;;;;5024464;28;20452;-70
2023/07/18 03:39:03;;;;;;;7.83;3.30;;;16.90;79.70;;;;;;5019914;28;20499;-70
2023/07/18 03:41:30;;;;;;;5.87;3.20;;;16.80;79.70;;;;;;5017960;28;20474;-70
2023/07/18 03:43:57;;;;;;;7.93;3.70;;;16.80;79.80;;;;;;5016087;28;20996;-70
2023/07/18 03:46:24;;;;;;;7.03;3.73;;;16.80;82.30;;;;;;5015576;28;20455;-70
2023/07/18 03:48:51;;;;;;;5.27;3.37;;;16.90;83.00;;;;;;5015219;28;20498;-69
2023/07/18 03:51:18;;;;;;;7.10;3.60;;;16.90;83.50;;;;;;5015138;28;20483;-70
2023/07/18 03:53:45;;;;;;;6.83;3.50;;;16.90;83.50;;;;;;5014789;28;21072;-70
2023/07/18 03:56:15;;;;;;;7.27;3.77;;;16.80;83.40;;;;;;5015083;28;20451;-70
2023/07/18 03:58:41;;;;;;;6.47;3.80;;;16.80;83.50;;;;;;5015089;28;20455;-70
2023/07/18 04:01:09;;;;;;;14.43;4.43;;;16.80;84.00;;;;;;5014886;28;20471;-70
2023/07/18 04:03:37;;;;;;;9.80;4.00;;;16.80;84.20;;;;;;5014730;28;20867;-70
2023/07/18 04:06:06;;;;;;;6.63;4.00;;;16.80;84.40;;;;;;5013086;28;20463;-70
2023/07/18 04:08:33;;;;;;;9.63;3.80;;;16.90;84.10;;;;;;5013288;28;20559;-70
2023/07/18 04:11:00;;;;;;;8.63;3.53;;;16.80;83.70;;;;;;5015488;28;20486;-70
2023/07/18 04:13:28;;;;;;;5.83;3.50;;;16.90;83.30;;;;;;5017595;28;20458;-70
2023/07/18 04:15:55;;;;;;;11.13;3.80;;;16.90;83.20;;;;;;5014636;28;20458;-70
2023/07/18 04:18:22;;;;;;;9.00;4.57;;;16.90;83.10;;;;;;5014754;28;20451;-70
2023/07/18 04:20:50;;;;;;;7.57;3.97;;;16.90;83.20;;;;;;5014497;28;20475;-70
2023/07/18 04:23:16;;;;;;;10.67;3.40;;;16.90;83.10;;;;;;5014028;28;20933;-70
2023/07/18 04:25:58;;;;;;;13.70;4.10;;;16.90;83.10;;;;;;5013385;28;20448;-71
2023/07/18 04:28:28;;;;;;;6.60;3.90;;;17.00;83.00;;;;;;5014254;28;20447;-70
2023/07/18 04:30:55;;;;;;;8.10;3.53;;;17.00;82.40;;;;;;5014407;28;20476;-70
2023/07/18 04:33:22;;;;;;;5.60;3.17;;;17.00;82.50;;;;;;5014003;28;20529;-70
2023/07/18 04:35:48;;;;;;;9.43;3.70;;;17.00;82.40;;;;;;5013771;28;20475;-70
2023/07/18 04:38:15;;;;;;;6.37;3.33;;;17.10;82.30;;;;;;5014483;28;20439;-70
2023/07/18 04:40:42;;;;;;;8.40;3.43;;;17.10;82.30;;;;;;5012747;28;20996;-70
2023/07/18 04:43:09;;;;;;;4.77;3.47;;;17.10;82.30;;;;;;5014771;28;20440;-70
2023/07/18 04:45:44;;;;;;;7.50;3.57;;;17.10;82.40;;;;;;5014098;28;20447;-70
2023/07/18 04:48:12;;;;;;;7.23;3.37;;;17.10;81.90;;;;;;5013982;28;20795;-70
2023/07/18 04:50:39;;;;;;;5.13;3.07;;;17.10;82.00;;;;;;5013955;28;20592;-70
2023/07/18 04:53:05;;;;;;;7.30;3.17;;;17.10;82.10;;;;;;5012658;28;20483;-70
2023/07/18 04:55:34;;;;;;;4.60;3.40;;;17.20;82.50;;;;;;5013822;28;20447;-70
2023/07/18 04:58:01;;;;;;;8.70;3.50;;;17.20;82.50;;;;;;5013702;28;20944;-70
2023/07/18 05:00:29;;;;;;;5.67;3.43;;;17.30;82.70;;;;;;5013958;28;20471;-70
2023/07/18 05:02:57;;;;;;;7.30;3.10;;;17.30;82.80;;;;;;5013786;28;20454;-70
2023/07/18 05:05:25;;;;;;;4.67;3.07;;;17.30;82.70;;;;;;5013724;28;20486;-70
2023/07/18 05:07:51;;;;;;;7.17;3.10;;;17.40;82.40;;;;;;5013811;28;20448;-70
2023/07/18 05:10:18;;;;;;;5.30;3.37;;;17.40;82.50;;;;;;5014082;28;20486;-70
2023/07/18 05:12:45;;;;;;;4.57;3.77;;;17.40;82.40;;;;;;5014208;28;20483;-70
2023/07/18 05:15:12;;;;;;;6.10;3.27;;;17.60;81.80;;;;;;5014037;28;20458;-70
2023/07/18 05:17:38;;;;;;;6.10;3.10;;;17.60;81.20;;;;;;5014286;28;20446;-70
2023/07/18 05:20:10;;;;;;;7.47;4.13;;;17.60;81.40;;;;;;5017548;28;20863;-70
2023/07/18 05:22:37;;;;;;;8.07;3.17;;;17.60;81.60;;;;;;5017839;28;20432;-69
2023/07/18 05:25:05;;;;;;;4.83;2.93;;;17.70;81.80;;;;;;5018066;28;20443;-70
2023/07/18 05:27:32;;;;;;;6.30;3.43;;;17.70;81.80;;;;;;5018162;28;20530;-70
2023/07/18 05:29:59;;;;;;;8.13;3.80;;;17.70;81.90;;;;;;5017802;28;20470;-70
2023/07/18 05:32:26;;;;;;;4.10;2.93;;;17.70;82.00;;;;;;5016647;28;20489;-70
2023/07/18 05:34:53;;;;;;;6.57;3.83;;;17.80;82.00;;;;;;5017493;28;20462;-70
2023/07/18 05:37:24;;;;;;;5.37;2.73;;;17.90;82.30;;;;;;5016316;28;20454;-70
2023/07/18 05:39:51;;;;;;;5.03;3.20;;;17.90;81.50;;;;;;5017529;28;20479;-71
2023/07/18 05:42:18;;;;;;;10.13;3.10;;;17.90;80.80;;;;;;5018240;28;20457;-70
2023/07/18 05:44:45;;;;;;;4.40;3.10;;;18.00;80.50;;;;;;5017582;28;20451;-70
2023/07/18 05:47:11;;;;;;;7.80;3.30;;;18.00;79.50;;;;;;5017263;28;20956;-70
2023/07/18 05:49:38;;;;;;;5.53;2.70;;;18.10;79.00;;;;;;5019808;28;20454;-70
2023/07/18 05:52:06;;;;;;;6.23;2.80;;;18.10;78.50;;;;;;5025505;28;20482;-70
2023/07/18 05:54:34;;;;;;;8.37;3.00;;;18.20;78.80;;;;;;5032140;28;20447;-70
2023/07/18 05:57:01;;;;;;;11.50;3.50;;;18.20;78.40;;;;;;5023324;28;20447;-70
2023/07/18 05:59:28;;;;;;;8.07;2.73;;;18.20;78.40;;;;;;5019916;28;20447;-70
2023/07/18 06:01:54;;;;;;;8.03;2.73;;;18.40;78.60;;;;;;5018011;28;20458;-70
2023/07/18 06:04:21;;;;;;;6.10;2.80;;;18.40;78.00;;;;;;5017396;28;20527;-70
2023/07/18 06:06:48;;;;;;;7.83;3.20;;;18.50;78.70;;;;;;5017233;28;20451;-70
2023/07/18 06:09:15;;;;;;;12.87;3.80;;;18.50;79.60;;;;;;5017306;28;20454;-70
2023/07/18 06:11:43;;;;;;;7.83;3.20;;;18.60;78.80;;;;;;5017177;28;20831;-70
2023/07/18 06:14:10;;;;;;;12.50;3.33;;;18.70;78.90;;;;;;5017022;28;20447;-71
2023/07/18 06:16:38;;;;;;;8.13;3.10;;;18.70;79.00;;;;;;5017183;28;20447;-70
2023/07/18 06:19:05;;;;;;;10.40;3.40;;;18.80;78.10;;;;;;5016754;28;20861;-70
2023/07/18 06:21:32;;;;;;;7.30;3.07;;;18.90;78.20;;;;;;5016911;28;20499;-70
2023/07/18 06:23:59;;;;;;;6.73;3.20;;;19.00;77.00;;;;;;5015431;28;20490;-69
2023/07/18 06:26:26;;;;;;;7.50;2.70;;;19.10;77.00;;;;;;5017752;28;20848;-70
2023/07/18 06:28:54;;;;;;;8.37;3.27;;;19.20;77.70;;;;;;5019478;28;20459;-70
2023/07/18 06:31:22;;;;;;;8.07;2.90;;;19.30;77.20;;;;;;5016061;28;21015;-70
2023/07/18 06:33:49;;;;;;;6.73;3.20;;;19.40;76.20;;;;;;5016395;28;20482;-70
2023/07/18 06:36:16;;;;;;;3.90;2.63;;;19.50;75.60;;;;;;5016455;28;20455;-70
2023/07/18 06:38:43;;;;;;;5.80;2.70;;;19.60;74.10;;;;;;5016647;28;20447;-70
2023/07/18 06:41:12;;;;;;;9.97;2.97;;;19.70;73.00;;;;;;5016256;28;20479;-70
2023/07/18 06:43:39;;;;;;;8.33;2.73;;;19.80;72.80;;;;;;5016421;28;20850;-70
2023/07/18 06:46:09;;;;;;;5.80;2.37;;;19.80;72.40;;;;;;5015978;28;20522;-70
2023/07/18 06:48:36;;;;;;;6.37;2.50;;;20.00;71.40;;;;;;5016480;28;20538;-69
2023/07/18 06:51:06;;;;;;;7.60;2.83;;;20.10;71.60;;;;;;5017197;28;21011;-70
2023/07/18 06:53:34;;;;;;;3.70;2.40;;;20.20;71.00;;;;;;5017737;28;21047;-70
2023/07/18 06:56:00;;;;;;;8.57;2.70;;;20.30;68.70;;;;;;5018178;28;20451;-70
2023/07/18 06:58:27;;;;;;;4.20;2.03;;;20.40;67.80;;;;;;5019165;28;20522;-70
2023/07/18 07:00:54;;;;;;;4.70;2.20;;;20.60;67.60;;;;;;5021074;28;20507;-70
2023/07/18 07:03:22;;;;;;;6.57;2.57;;;20.70;67.40;;;;;;5022094;28;20505;-70
2023/07/18 07:05:49;;;;;;;6.57;2.23;;;20.90;66.40;;;;;;5021950;28;20459;-70
2023/07/18 07:08:18;;;;;;;3.30;1.83;;;21.00;65.40;;;;;;5020946;28;20473;-70
2023/07/18 07:10:45;;;;;;;6.20;2.40;;;21.10;64.30;;;;;;5021560;28;20482;-70
2023/07/18 07:13:13;;;;;;;10.80;2.30;;;21.30;63.80;;;;;;5020791;28;20486;-71
2023/07/18 07:15:40;;;;;;;6.80;2.40;;;21.40;63.50;;;;;;5020147;28;20479;-70
2023/07/18 07:18:07;;;;;;;9.03;2.63;;;21.60;62.00;;;;;;5018863;28;20459;-70
2023/07/18 07:20:35;;;;;;;10.00;2.10;;;21.80;61.90;;;;;;5018330;28;20483;-70
2023/07/18 07:23:02;;;;;;;9.30;2.50;;;22.00;60.90;;;;;;5017130;28;20448;-70
2023/07/18 07:25:30;;;;;;;6.37;2.00;;;22.10;59.60;;;;;;5017165;28;20865;-70
2023/07/18 07:27:58;;;;;;;5.53;2.17;;;22.30;59.40;;;;;;5017018;28;20443;-70
2023/07/18 07:30:25;;;;;;;8.20;2.20;;;22.30;59.10;;;;;;5017218;28;20467;-70
2023/07/18 07:32:52;;;;;;;5.60;2.00;;;22.40;58.50;;;;;;5016783;28;20479;-70
2023/07/18 07:35:20;;;;;;;7.03;1.93;;;22.40;57.40;;;;;;5016226;28;20542;-70
2023/07/18 07:37:48;;;;;;;5.53;1.90;;;22.60;57.20;;;;;;5016028;28;20482;-70
2023/07/18 07:40:15;;;;;;;6.37;1.87;;;22.80;57.70;;;;;;5015856;28;20474;-70
2023/07/18 07:42:45;;;;;;;5.13;1.50;;;23.00;57.80;;;;;;5014994;28;20443;-70
2023/07/18 07:45:13;;;;;;;3.90;1.83;;;23.30;56.40;;;;;;5015631;28;20455;-70
2023/07/18 07:47:40;;;;;;;4.03;1.70;;;23.60;55.20;;;;;;5015484;28;20821;-70
2023/07/18 07:50:09;;;;;;;4.20;1.57;;;23.80;53.60;;;;;;5015464;28;20471;-70
2023/07/18 07:52:36;;;;;;;4.60;1.47;;;24.10;52.90;;;;;;5014993;28;20475;-70
2023/07/18 07:55:05;;;;;;;7.70;2.27;;;24.30;52.60;;;;;;5015129;28;20941;-70
2023/07/18 07:57:32;;;;;;;9.97;1.80;;;24.60;51.80;;;;;;5013531;28;20443;-70
2023/07/18 07:59:59;;;;;;;2.30;1.30;;;24.90;50.50;;;;;;5016903;28;20475;-71
2023/07/18 08:02:25;;;;;;;6.30;1.60;;;25.10;49.20;;;;;;5029401;28;20454;-70
2023/07/18 08:04:52;;;;;;;9.30;1.80;;;25.20;48.80;;;;;;5033918;28;20455;-70
2023/07/18 08:07:20;;;;;;;10.40;1.93;;;25.30;47.60;;;;;;5021733;28;20470;-70
2023/07/18 08:09:47;;;;;;;5.80;1.47;;;25.40;47.10;;;;;;5018999;28;20475;-71
2023/07/18 08:12:16;;;;;;;6.60;1.80;;;25.60;45.80;;;;;;5019099;28;20451;-71
2023/07/18 08:14:42;;;;;;;7.50;1.37;;;25.80;45.10;;;;;;5014209;28;20443;-70
2023/07/18 08:17:09;;;;;;;5.33;1.30;;;26.10;45.40;;;;;;5019440;28;20447;-70
2023/07/18 08:19:36;;;;;;;5.10;1.47;;;26.40;45.50;;;;;;5022811;28;20456;-69
2023/07/18 08:22:07;;;;;;;6.87;1.50;;;26.80;44.80;;;;;;5023671;28;20455;-70
2023/07/18 08:24:36;;;;;;;5.60;1.43;;;27.00;43.90;;;;;;5022843;28;20428;-70
2023/07/18 08:27:03;;;;;;;8.33;1.40;;;27.10;41.10;;;;;;5021965;28;20452;-70
2023/07/18 08:29:31;;;;;;;5.50;1.60;;;27.00;41.00;;;;;;5022924;28;20455;-68
2023/07/18 08:31:59;;;;;;;13.07;1.70;;;27.10;40.10;;;;;;5023117;28;20447;-69
2023/07/18 08:34:26;;;;;;;3.70;1.57;;;26.90;40.10;;;;;;5021362;28;20491;-70
2023/07/18 08:36:53;;;;;;;7.40;1.73;;;27.00;41.90;;;;;;5023143;28;20443;-70
2023/07/18 08:39:20;;;;;;;6.57;1.40;;;27.10;40.10;;;;;;5024713;28;20451;-70
2023/07/18 08:41:49;;;;;;;6.43;1.40;;;27.00;40.20;;;;;;5026284;28;20475;-69
2023/07/18 08:44:17;;;;;;;14.07;2.00;;;26.90;40.40;;;;;;5032456;28;20507;-70
2023/07/18 08:46:47;;;;;;;7.27;1.77;;;26.90;40.50;;;;;;5028423;28;20967;-70
2023/07/18 08:49:27;;;;;;;5.27;1.73;;;26.80;41.10;;;;;;5024193;28;20455;-69
2023/07/18 08:51:54;;;;;;;7.70;1.40;;;26.80;42.40;;;;;;5023688;28;20781;-70
2023/07/18 08:54:21;;;;;;;5.33;1.80;;;26.90;42.00;;;;;;5022272;28;20508;-70
2023/07/18 08:56:52;;;;;;;9.93;1.70;;;27.00;39.70;;;;;;5023159;28;20526;-70
2023/07/18 08:59:19;;;;;;;10.33;1.53;;;27.00;40.50;;;;;;5021042;28;20447;-69
2023/07/18 09:01:48;;;;;;;6.20;1.73;;;27.10;41.30;;;;;;5021598;28;20478;-70
2023/07/18 09:04:15;;;;;;;6.20;1.47;;;27.00;39.30;;;;;;5022074;28;20448;-70
2023/07/18 09:06:48;;;;;;;6.50;1.70;;;26.90;41.00;;;;;;5023121;28;20852;-70
2023/07/18 09:09:21;;;;;;;6.80;1.77;;;27.10;41.40;;;;;;5021908;28;20479;-69
2023/07/18 09:11:56;;;;;;;4.47;1.60;;;27.40;41.40;;;;;;5022836;28;20468;-70
2023/07/18 09:14:30;;;;;;;4.30;1.60;;;27.80;40.80;;;;;;5023487;28;20494;-70
2023/07/18 09:17:01;;;;;;;3.80;1.17;;;28.10;38.80;;;;;;5023452;28;20436;-67
2023/07/18 09:19:40;;;;;;;2.60;1.07;;;28.30;38.00;;;;;;5021995;28;20444;-69
2023/07/18 09:22:08;;;;;;;3.67;1.30;;;28.60;38.30;;;;;;5016247;28;20451;-71
2023/07/18 09:24:36;;;;;;;4.50;1.20;;;28.90;38.20;;;;;;5013713;28;20449;-71
2023/07/18 09:27:04;;;;;;;5.17;1.60;;;29.10;35.70;;;;;;5012904;28;20451;-71
2023/07/18 09:29:30;;;;;;;6.30;1.40;;;29.20;35.30;;;;;;5014033;28;20447;-71
2023/07/18 09:31:59;;;;;;;3.37;1.33;;;28.70;34.50;;;;;;5012928;28;20451;-71
2023/07/18 09:34:27;;;;;;;5.83;1.50;;;28.50;37.10;;;;;;5013568;28;20573;-71
2023/07/18 09:36:59;;;;;;;5.10;1.97;;;28.10;36.30;;;;;;5013761;28;20460;-71
2023/07/18 09:39:27;;;;;;;3.17;1.40;;;28.00;37.00;;;;;;5013811;28;20447;-71
2023/07/18 09:41:56;;;;;;;4.10;1.50;;;28.30;37.40;;;;;;5013687;28;20505;-71
2023/07/18 09:44:25;;;;;;;2.10;1.30;;;28.60;36.80;;;;;;5013656;28;20443;-71
2023/07/18 09:46:52;;;;;;;9.33;1.50;;;29.00;36.20;;;;;;5013254;28;20458;-71
2023/07/18 09:49:23;;;;;;;5.23;1.30;;;29.20;36.30;;;;;;5013414;28;20447;-72
2023/07/18 09:51:57;;;;;;;1.87;1.40;;;29.40;34.70;;;;;;5013573;28;20436;-71
2023/07/18 09:54:27;;;;;;;4.10;1.77;;;29.20;34.20;;;;;;5014000;28;20477;-71
2023/07/18 09:56:57;;;;;;;8.30;1.70;;;29.00;35.60;;;;;;5013748;28;20818;-71
2023/07/18 09:59:26;;;;;;;5.90;1.17;;;28.80;36.30;;;;;;5012453;28;20439;-70
2023/07/18 10:01:54;;;;;;;7.63;1.67;;;28.70;35.50;;;;;;5013434;28;20463;-71
2023/07/18 10:04:23;;;;;;;2.57;1.70;;;28.90;36.90;;;;;;5013922;28;20443;-71
2023/07/18 10:06:51;;;;;;;2.73;1.43;;;28.90;37.30;;;;;;5017077;28;20443;-71
2023/07/18 10:09:19;;;;;;;5.53;1.97;;;29.10;36.80;;;;;;5029531;28;20861;-70
2023/07/18 10:12:09;;;;;;;9.10;1.90;;;29.20;36.60;;;;;;5036529;28;20473;-70
2023/07/18 10:14:50;;;;;;;4.07;2.20;;;29.00;35.30;;;;;;5036673;28;20478;-71
2023/07/18 10:17:26;;;;;;;10.80;1.80;;;28.80;35.00;;;;;;5038269;28;20534;-70
2023/07/18 10:19:54;;;;;;;5.00;1.70;;;28.60;35.10;;;;;;5050933;28;20476;-70
2023/07/18 10:22:26;;;;;;;3.30;1.60;;;28.50;35.20;;;;;;5045978;28;20468;-70
2023/07/18 10:24:53;;;;;;;4.00;1.50;;;28.50;36.10;;;;;;5039815;28;20855;-71
2023/07/18 10:27:24;;;;;;;6.30;1.90;;;28.60;35.70;;;;;;5037901;28;20458;-71
2023/07/18 10:30:06;;;;;;;2.30;1.60;;;28.50;37.00;;;;;;5038091;28;20493;-71
2023/07/18 10:32:34;;;;;;;3.13;1.90;;;28.50;36.00;;;;;;5034418;28;20985;-70
2023/07/18 10:35:08;;;;;;;3.53;1.30;;;28.40;36.20;;;;;;5036229;28;20482;-71
2023/07/18 10:37:36;;;;;;;3.40;2.00;;;28.40;36.40;;;;;;5036286;28;20427;-71
2023/07/18 10:40:06;;;;;;;5.13;1.73;;;28.50;36.40;;;;;;5036048;28;20979;-71
2023/07/18 10:42:34;;;;;;;3.13;1.90;;;28.70;36.60;;;;;;5036373;28;20960;-71
2023/07/18 10:45:04;;;;;;;3.00;1.67;;;29.00;35.60;;;;;;5035143;28;20533;-71
2023/07/18 10:47:32;;;;;;;5.17;2.00;;;29.20;35.50;;;;;;5038405;28;20489;-71
2023/07/18 10:49:58;;;;;;;3.73;1.90;;;29.30;34.60;;;;;;5036061;28;20459;-71
2023/07/18 10:52:28;;;;;;;4.27;1.80;;;29.30;35.00;;;;;;5036016;28;20450;-71
2023/07/18 10:54:56;;;;;;;4.50;1.97;;;29.20;35.50;;;;;;5038589;28;20854;-71
2023/07/18 10:57:27;;;;;;;4.73;1.90;;;29.00;34.60;;;;;;5039324;28;20461;-71
2023/07/18 10:59:54;;;;;;;4.20;2.10;;;28.80;35.90;;;;;;5035526;28;20474;-71
2023/07/18 11:02:21;;;;;;;5.07;2.20;;;28.70;36.90;;;;;;5035406;28;20910;-71
2023/07/18 11:04:50;;;;;;;2.53;1.60;;;28.60;36.40;;;;;;5035499;28;20469;-71
2023/07/18 11:07:17;;;;;;;4.40;2.20;;;28.60;35.40;;;;;;5035848;28;20478;-71
2023/07/18 11:09:45;;;;;;;4.00;1.90;;;28.60;37.90;;;;;;5035916;28;20478;-71
2023/07/18 11:12:19;;;;;;;5.50;1.93;;;28.60;38.20;;;;;;5035633;28;20453;-71
2023/07/18 11:14:46;;;;;;;2.50;1.83;;;28.70;38.60;;;;;;5035246;28;21011;-71
2023/07/18 11:17:14;;;;;;;2.47;1.83;;;28.90;37.10;;;;;;5034322;28;20478;-71
2023/07/18 11:19:41;;;;;;;2.80;1.43;;;29.10;35.90;;;;;;5035239;28;20454;-71
2023/07/18 11:22:08;;;;;;;5.73;1.60;;;29.30;35.20;;;;;;5034060;28;20442;-71
2023/07/18 11:24:35;;;;;;;3.97;1.60;;;29.50;34.40;;;;;;5034744;28;20446;-71
2023/07/18 11:27:15;;;;;;;4.07;2.00;;;29.50;34.10;;;;;;5035201;28;20829;-71
2023/07/18 11:29:49;;;;;;;4.33;2.13;;;29.60;33.80;;;;;;5035026;28;20478;-71
2023/07/18 11:32:16;;;;;;;3.60;1.97;;;29.70;33.70;;;;;;5042530;28;20430;-70
2023/07/18 11:34:42;;;;;;;2.20;1.93;;;29.80;33.30;;;;;;5036321;28;20493;-71
2023/07/18 11:37:09;;;;;;;5.40;2.03;;;29.80;32.90;;;;;;5034853;28;20465;-72
2023/07/18 11:39:36;;;;;;;4.40;1.93;;;29.70;32.70;;;;;;5034834;28;20982;-71
2023/07/18 11:42:08;;;;;;;6.30;2.13;;;29.50;33.60;;;;;;5034882;28;20454;-71
2023/07/18 11:44:36;;;;;;;4.10;2.30;;;29.50;33.20;;;;;;5034750;28;20473;-68
2023/07/18 11:47:10;;;;;;;2.20;1.67;;;29.80;33.60;;;;;;5034749;28;20486;-68
2023/07/18 11:49:37;;;;;;;2.97;2.20;;;30.50;33.80;;;;;;5034810;28;20437;-68
2023/07/18 11:52:05;;;;;;;4.97;2.17;;;31.40;31.70;;;;;;5034833;28;20454;-68
2023/07/18 11:54:35;;;;;;;5.60;2.10;;;32.60;28.30;;;;;;5034544;28;20551;-69
2023/07/18 11:57:03;;;;;;;3.67;2.20;;;33.60;28.50;;;;;;5034647;28;20456;-69
2023/07/18 11:59:30;;;;;;;6.93;2.17;;;34.60;27.50;;;;;;5034592;28;20494;-69
2023/07/18 12:01:58;;;;;;;5.30;1.93;;;35.50;26.20;;;;;;5034582;28;20457;-69
2023/07/18 12:04:25;;;;;;;2.87;1.97;;;36.30;24.20;;;;;;5034956;28;20438;-70
2023/07/18 12:06:51;;;;;;;5.63;2.30;;;37.20;24.00;;;;;;5034115;28;20236;-69
2023/07/18 12:09:18;;;;;;;4.60;2.25;;;37.90;23.10;;;;;;5034165;28;20669;-69
2023/07/18 12:11:45;;;;;;;3.83;1.90;;;38.60;21.50;;;;;;5034256;28;20219;-70
2023/07/18 12:14:12;;;;;;;6.38;2.35;;;39.10;21.30;;;;;;5034845;28;20273;-70
2023/07/18 12:16:41;;;;;;;3.33;2.10;;;38.80;21.00;;;;;;5034679;28;20199;-70
2023/07/18 12:19:09;;;;;;;4.25;2.22;;;38.70;21.30;;;;;;5034250;28;20235;-70
2023/07/18 12:21:36;;;;;;;6.32;2.38;;;39.20;21.40;;;;;;5034441;28;20254;-70
2023/07/18 12:24:04;;;;;;;3.72;2.47;;;40.10;21.70;;;;;;5034206;28;20692;-70
2023/07/18 12:26:30;;;;;;;5.22;2.70;;;40.80;21.10;;;;;;5035024;28;20199;-70
2023/07/18 12:28:57;;;;;;;2.67;2.00;;;40.90;18.90;;;;;;5034083;28;20577;-70
2023/07/18 12:31:24;;;;;;;3.90;2.10;;;41.20;19.20;;;;;;5034314;28;20223;-70
2023/07/18 12:33:51;;;;;;;5.78;2.35;;;41.50;18.80;;;;;;5049832;28;20226;-70
2023/07/18 12:36:20;;;;;;;2.75;1.88;;;41.50;18.40;;;;;;5046860;28;20202;-70
2023/07/18 12:38:47;;;;;;;2.75;2.13;;;41.20;18.30;;;;;;5037814;28;20203;-70
2023/07/18 12:41:14;;;;;;;2.33;2.13;;;41.10;19.20;;;;;;5035701;28;20723;-70
2023/07/18 12:43:40;;;;;;;3.72;2.25;;;41.20;18.50;;;;;;5034747;28;20203;-70
2023/07/18 12:46:07;;;;;;;5.25;2.13;;;41.50;18.90;;;;;;5034213;28;20202;-70
2023/07/18 12:48:34;;;;;;;3.63;2.30;;;41.90;17.90;;;;;;5032754;28;20216;-71